ZPTAI SSER-SBJD
Flight info
| Callsign | ZPTAI |
|---|---|
| Flight time | N/A |
| Altitude | FL075 |
| Route | PUMLI/N0100F090 IFR EGBUG UTGED XONUG LOLAG PUGBU |
| Aircraft | C172/L-SG/C |
Departure
| Time | 2026-05-05 20:40 |
|---|---|
| Airport | Erechim Airport (SSER) |
Arrival
| Time | N/A |
|---|---|
| Airport | Comte. Rolim Adolfo Amaro–Jundiaí State Airport (SBJD) |
| Time | Latitude | Longitude | Altitude | Speed | Heading |
|---|---|---|---|---|---|
| 2026-05-05 20:39 | -27.43180 | -52.09785 | 7443 ft | 81 kts | 26° |
| 2026-05-05 20:40 | -27.42717 | -52.09420 | 7523 ft | 81 kts | 26° |
| 2026-05-05 20:40 | -27.42256 | -52.09056 | 7603 ft | 81 kts | 26° |
| 2026-05-05 20:40 | -27.41793 | -52.08690 | 7683 ft | 81 kts | 26° |
| 2026-05-05 20:40 | -27.41334 | -52.08326 | 7760 ft | 81 kts | 26° |
| 2026-05-05 20:41 | -27.40875 | -52.07961 | 7836 ft | 81 kts | 26° |
| 2026-05-05 20:41 | -27.40416 | -52.07596 | 7910 ft | 81 kts | 26° |
| 2026-05-05 20:41 | -27.39958 | -52.07231 | 7986 ft | 81 kts | 26° |
| 2026-05-05 20:41 | -27.39502 | -52.06867 | 8060 ft | 80 kts | 26° |
| 2026-05-05 20:42 | -27.39047 | -52.06503 | 8133 ft | 80 kts | 26° |
| 2026-05-05 20:42 | -27.38595 | -52.06140 | 8205 ft | 80 kts | 26° |
| 2026-05-05 20:42 | -27.38143 | -52.05776 | 8278 ft | 80 kts | 26° |
| 2026-05-05 20:42 | -27.37691 | -52.05420 | 8349 ft | 79 kts | 25° |
| 2026-05-05 20:43 | -27.37238 | -52.05068 | 8417 ft | 79 kts | 25° |
| 2026-05-05 20:43 | -27.36787 | -52.04716 | 8483 ft | 79 kts | 25° |
| 2026-05-05 20:43 | -27.36334 | -52.04364 | 8552 ft | 79 kts | 25° |
| 2026-05-05 20:43 | -27.35883 | -52.04012 | 8617 ft | 79 kts | 25° |
| 2026-05-05 20:44 | -27.35433 | -52.03660 | 8680 ft | 79 kts | 25° |
| 2026-05-05 20:44 | -27.34985 | -52.03309 | 8750 ft | 78 kts | 25° |
| 2026-05-05 20:44 | -27.34543 | -52.02961 | 8821 ft | 77 kts | 25° |
| 2026-05-05 20:44 | -27.34106 | -52.02618 | 8890 ft | 76 kts | 25° |
| 2026-05-05 20:45 | -27.33247 | -52.01939 | 9009 ft | 77 kts | 25° |
| 2026-05-05 20:45 | -27.32797 | -52.01588 | 9030 ft | 81 kts | 26° |
| 2026-05-05 20:45 | -27.32319 | -52.01213 | 9036 ft | 87 kts | 26° |
| 2026-05-05 20:46 | -27.31809 | -52.00821 | 9030 ft | 91 kts | 26° |
| 2026-05-05 20:46 | -27.31276 | -52.00407 | 9020 ft | 95 kts | 27° |
| 2026-05-05 20:46 | -27.30728 | -51.99980 | 9012 ft | 97 kts | 27° |
| 2026-05-05 20:46 | -27.30172 | -51.99549 | 9006 ft | 98 kts | 27° |
| 2026-05-05 20:47 | -27.29610 | -51.99114 | 9003 ft | 98 kts | 27° |
| 2026-05-05 20:47 | -27.29046 | -51.98678 | 9001 ft | 99 kts | 27° |
| 2026-05-05 20:47 | -27.28482 | -51.98242 | 9000 ft | 99 kts | 27° |
| 2026-05-05 20:47 | -27.27918 | -51.97807 | 9000 ft | 99 kts | 27° |
| 2026-05-05 20:48 | -27.27354 | -51.97371 | 9000 ft | 99 kts | 27° |
| 2026-05-05 20:48 | -27.26789 | -51.96934 | 9000 ft | 99 kts | 27° |
| 2026-05-05 20:48 | -27.26226 | -51.96498 | 9000 ft | 99 kts | 27° |
| 2026-05-05 20:48 | -27.25661 | -51.96062 | 9000 ft | 99 kts | 27° |
| 2026-05-05 20:49 | -27.25098 | -51.95626 | 9000 ft | 99 kts | 27° |
| 2026-05-05 20:49 | -27.24534 | -51.95190 | 9000 ft | 99 kts | 27° |
| 2026-05-05 20:49 | -27.23970 | -51.94755 | 9001 ft | 98 kts | 27° |
| 2026-05-05 20:49 | -27.23407 | -51.94320 | 9001 ft | 98 kts | 27° |
| 2026-05-05 20:50 | -27.22843 | -51.93886 | 9001 ft | 98 kts | 27° |
| 2026-05-05 20:50 | -27.22280 | -51.93450 | 9001 ft | 99 kts | 28° |
| 2026-05-05 20:50 | -27.21719 | -51.93010 | 9001 ft | 98 kts | 27° |
| 2026-05-05 20:50 | -27.21160 | -51.92571 | 9001 ft | 99 kts | 28° |
| 2026-05-05 20:51 | -27.20597 | -51.92135 | 9001 ft | 98 kts | 27° |
| 2026-05-05 20:51 | -27.20036 | -51.91695 | 9001 ft | 98 kts | 28° |
| 2026-05-05 20:51 | -27.19476 | -51.91256 | 9001 ft | 98 kts | 28° |
| 2026-05-05 20:51 | -27.18915 | -51.90821 | 9001 ft | 99 kts | 28° |
| 2026-05-05 20:52 | -27.18352 | -51.90382 | 9001 ft | 98 kts | 27° |
| 2026-05-05 20:52 | -27.17791 | -51.89943 | 9001 ft | 98 kts | 28° |
| 2026-05-05 20:52 | -27.17231 | -51.89508 | 9001 ft | 99 kts | 28° |
| 2026-05-05 20:52 | -27.16698 | -51.89018 | 9002 ft | 101 kts | 40° |
| 2026-05-05 20:53 | -27.16233 | -51.88438 | 9009 ft | 101 kts | 40° |
| 2026-05-05 20:53 | -27.15768 | -51.87845 | 9003 ft | 102 kts | 41° |
| 2026-05-05 20:53 | -27.15308 | -51.87249 | 9002 ft | 102 kts | 41° |
| 2026-05-05 20:53 | -27.14846 | -51.86650 | 9001 ft | 102 kts | 41° |
| 2026-05-05 20:54 | -27.14385 | -51.86052 | 9001 ft | 102 kts | 41° |
| 2026-05-05 20:54 | -27.13923 | -51.85455 | 9001 ft | 101 kts | 41° |
| 2026-05-05 20:54 | -27.13462 | -51.84857 | 9001 ft | 101 kts | 41° |
| 2026-05-05 20:54 | -27.13001 | -51.84260 | 9001 ft | 101 kts | 41° |
| 2026-05-05 20:55 | -27.12541 | -51.83663 | 9001 ft | 101 kts | 41° |
| 2026-05-05 20:55 | -27.12080 | -51.83067 | 9001 ft | 101 kts | 41° |
| 2026-05-05 20:55 | -27.11618 | -51.82469 | 9001 ft | 101 kts | 41° |
| 2026-05-05 20:55 | -27.11159 | -51.81875 | 9001 ft | 101 kts | 41° |
| 2026-05-05 20:56 | -27.10698 | -51.81278 | 9001 ft | 101 kts | 41° |
| 2026-05-05 20:56 | -27.10237 | -51.80682 | 9001 ft | 101 kts | 41° |
| 2026-05-05 20:56 | -27.09776 | -51.80087 | 9001 ft | 101 kts | 41° |
| 2026-05-05 20:56 | -27.09315 | -51.79491 | 8999 ft | 102 kts | 41° |
| 2026-05-05 20:57 | -27.08852 | -51.78891 | 8999 ft | 102 kts | 41° |
| 2026-05-05 20:57 | -27.08388 | -51.78291 | 9000 ft | 102 kts | 41° |
| 2026-05-05 20:57 | -27.07924 | -51.77690 | 8999 ft | 102 kts | 41° |
| 2026-05-05 20:57 | -27.07459 | -51.77090 | 8999 ft | 102 kts | 41° |
| 2026-05-05 20:58 | -27.06993 | -51.76488 | 8998 ft | 102 kts | 41° |
| 2026-05-05 20:58 | -27.06517 | -51.75884 | 8997 ft | 103 kts | 40° |
| 2026-05-05 20:58 | -27.06040 | -51.75285 | 9006 ft | 103 kts | 40° |
| 2026-05-05 20:58 | -27.05562 | -51.74684 | 9009 ft | 104 kts | 40° |
| 2026-05-05 20:59 | -27.05079 | -51.74078 | 9010 ft | 105 kts | 40° |
| 2026-05-05 20:59 | -27.04595 | -51.73465 | 9010 ft | 106 kts | 41° |
| 2026-05-05 20:59 | -27.04112 | -51.72842 | 9010 ft | 106 kts | 41° |
| 2026-05-05 20:59 | -27.03628 | -51.72218 | 9011 ft | 107 kts | 41° |
| 2026-05-05 21:00 | -27.03141 | -51.71591 | 9011 ft | 107 kts | 41° |
| 2026-05-05 21:00 | -27.02650 | -51.70962 | 9012 ft | 108 kts | 41° |
| 2026-05-05 21:00 | -27.02157 | -51.70331 | 9013 ft | 108 kts | 41° |
| 2026-05-05 21:00 | -27.01661 | -51.69699 | 9013 ft | 108 kts | 41° |
| 2026-05-05 21:01 | -27.01162 | -51.69064 | 9014 ft | 109 kts | 41° |
| 2026-05-05 21:01 | -27.00660 | -51.68428 | 9014 ft | 109 kts | 41° |
| 2026-05-05 21:01 | -27.00157 | -51.67791 | 9014 ft | 110 kts | 41° |
| 2026-05-05 21:01 | -26.99650 | -51.67153 | 9015 ft | 110 kts | 41° |
| 2026-05-05 21:02 | -26.99143 | -51.66514 | 9016 ft | 110 kts | 41° |
| 2026-05-05 21:02 | -26.98635 | -51.65875 | 9015 ft | 110 kts | 41° |
| 2026-05-05 21:02 | -26.98126 | -51.65235 | 9015 ft | 110 kts | 41° |
| 2026-05-05 21:02 | -26.97615 | -51.64593 | 9014 ft | 110 kts | 41° |
| 2026-05-05 21:03 | -26.97106 | -51.63953 | 9013 ft | 111 kts | 41° |
| 2026-05-05 21:03 | -26.96595 | -51.63310 | 9013 ft | 110 kts | 41° |
| 2026-05-05 21:03 | -26.96085 | -51.62669 | 9012 ft | 110 kts | 41° |
| 2026-05-05 21:03 | -26.95574 | -51.62027 | 9012 ft | 110 kts | 41° |
| 2026-05-05 21:04 | -26.95064 | -51.61386 | 9011 ft | 110 kts | 41° |
| 2026-05-05 21:04 | -26.94556 | -51.60746 | 9010 ft | 110 kts | 41° |
| 2026-05-05 21:04 | -26.94047 | -51.60105 | 9010 ft | 110 kts | 41° |
| 2026-05-05 21:04 | -26.93538 | -51.59463 | 9009 ft | 110 kts | 41° |
| 2026-05-05 21:05 | -26.93030 | -51.58824 | 9008 ft | 110 kts | 41° |
| 2026-05-05 21:05 | -26.92522 | -51.58183 | 9007 ft | 110 kts | 41° |
| 2026-05-05 21:05 | -26.92017 | -51.57545 | 9007 ft | 110 kts | 41° |
| 2026-05-05 21:05 | -26.91510 | -51.56905 | 9006 ft | 110 kts | 41° |
| 2026-05-05 21:06 | -26.91004 | -51.56266 | 9005 ft | 110 kts | 41° |
| 2026-05-05 21:06 | -26.90504 | -51.55632 | 9005 ft | 109 kts | 41° |
| 2026-05-05 21:06 | -26.90003 | -51.54996 | 8988 ft | 109 kts | 41° |
| 2026-05-05 21:06 | -26.89504 | -51.54362 | 8984 ft | 108 kts | 41° |
| 2026-05-05 21:07 | -26.89008 | -51.53733 | 8992 ft | 107 kts | 41° |
| 2026-05-05 21:07 | -26.88521 | -51.53116 | 9008 ft | 106 kts | 41° |
| 2026-05-05 21:07 | -26.88036 | -51.52502 | 9014 ft | 105 kts | 41° |
| 2026-05-05 21:07 | -26.87551 | -51.51888 | 9017 ft | 106 kts | 41° |
| 2026-05-05 21:08 | -26.87065 | -51.51273 | 9019 ft | 106 kts | 41° |
| 2026-05-05 21:08 | -26.86579 | -51.50660 | 9020 ft | 106 kts | 41° |
| 2026-05-05 21:08 | -26.86092 | -51.50047 | 9021 ft | 105 kts | 41° |
| 2026-05-05 21:08 | -26.85606 | -51.49435 | 9023 ft | 105 kts | 41° |
| 2026-05-05 21:09 | -26.85120 | -51.48823 | 9025 ft | 105 kts | 41° |
| 2026-05-05 21:09 | -26.84641 | -51.48207 | 9027 ft | 105 kts | 43° |
| 2026-05-05 21:09 | -26.84166 | -51.47590 | 9029 ft | 105 kts | 43° |
| 2026-05-05 21:09 | -26.83690 | -51.46973 | 9030 ft | 105 kts | 43° |
| 2026-05-05 21:10 | -26.83215 | -51.46357 | 9031 ft | 105 kts | 43° |
| 2026-05-05 21:10 | -26.82739 | -51.45742 | 9032 ft | 105 kts | 43° |
| 2026-05-05 21:10 | -26.82264 | -51.45127 | 9033 ft | 105 kts | 43° |
| 2026-05-05 21:10 | -26.81789 | -51.44514 | 9033 ft | 105 kts | 43° |
| 2026-05-05 21:11 | -26.81315 | -51.43901 | 9035 ft | 104 kts | 43° |
| 2026-05-05 21:11 | -26.80840 | -51.43288 | 9035 ft | 104 kts | 43° |
| 2026-05-05 21:11 | -26.80366 | -51.42676 | 9035 ft | 104 kts | 43° |
| 2026-05-05 21:11 | -26.79891 | -51.42064 | 9035 ft | 104 kts | 43° |
| 2026-05-05 21:12 | -26.79415 | -51.41451 | 9034 ft | 104 kts | 43° |
| 2026-05-05 21:12 | -26.78940 | -51.40838 | 9034 ft | 104 kts | 43° |
| 2026-05-05 21:12 | -26.78465 | -51.40225 | 9034 ft | 104 kts | 43° |
| 2026-05-05 21:12 | -26.77989 | -51.39613 | 9033 ft | 105 kts | 43° |
| 2026-05-05 21:13 | -26.77513 | -51.39000 | 9033 ft | 105 kts | 43° |
| 2026-05-05 21:13 | -26.77037 | -51.38387 | 9032 ft | 105 kts | 43° |
| 2026-05-05 21:13 | -26.76561 | -51.37774 | 9032 ft | 105 kts | 43° |
| 2026-05-05 21:13 | -26.76085 | -51.37161 | 9031 ft | 105 kts | 43° |
| 2026-05-05 21:14 | -26.75608 | -51.36548 | 9031 ft | 105 kts | 43° |
| 2026-05-05 21:14 | -26.75131 | -51.35935 | 9030 ft | 105 kts | 43° |
| 2026-05-05 21:14 | -26.74654 | -51.35321 | 9030 ft | 105 kts | 43° |
| 2026-05-05 21:14 | -26.74177 | -51.34707 | 9029 ft | 105 kts | 43° |
| 2026-05-05 21:15 | -26.73700 | -51.34095 | 9029 ft | 105 kts | 43° |
| 2026-05-05 21:15 | -26.73222 | -51.33481 | 9028 ft | 105 kts | 43° |
| 2026-05-05 21:15 | -26.72744 | -51.32866 | 9028 ft | 105 kts | 43° |
| 2026-05-05 21:15 | -26.72263 | -51.32249 | 9014 ft | 106 kts | 43° |
| 2026-05-05 21:16 | -26.71777 | -51.31625 | 9009 ft | 106 kts | 43° |
| 2026-05-05 21:16 | -26.71295 | -51.31010 | 9024 ft | 105 kts | 43° |
| 2026-05-05 21:16 | -26.70817 | -51.30401 | 9031 ft | 104 kts | 43° |
| 2026-05-05 21:16 | -26.70341 | -51.29794 | 9034 ft | 104 kts | 43° |
| 2026-05-05 21:17 | -26.69864 | -51.29186 | 9036 ft | 104 kts | 43° |
| 2026-05-05 21:17 | -26.69386 | -51.28577 | 9037 ft | 104 kts | 43° |
| 2026-05-05 21:17 | -26.68908 | -51.27969 | 9038 ft | 104 kts | 43° |
| 2026-05-05 21:17 | -26.68430 | -51.27361 | 9039 ft | 104 kts | 43° |
| 2026-05-05 21:18 | -26.67950 | -51.26752 | 9041 ft | 104 kts | 43° |
| 2026-05-05 21:18 | -26.67471 | -51.26145 | 9042 ft | 104 kts | 43° |
| 2026-05-05 21:18 | -26.66992 | -51.25537 | 9043 ft | 104 kts | 43° |
| 2026-05-05 21:18 | -26.66512 | -51.24929 | 9045 ft | 104 kts | 43° |
| 2026-05-05 21:19 | -26.66033 | -51.24323 | 9046 ft | 104 kts | 43° |
| 2026-05-05 21:19 | -26.65554 | -51.23717 | 9047 ft | 104 kts | 43° |
| 2026-05-05 21:19 | -26.65074 | -51.23112 | 9048 ft | 104 kts | 43° |
| 2026-05-05 21:19 | -26.64593 | -51.22504 | 9049 ft | 104 kts | 43° |
| 2026-05-05 21:20 | -26.64113 | -51.21898 | 9049 ft | 104 kts | 43° |
| 2026-05-05 21:20 | -26.63632 | -51.21291 | 9050 ft | 104 kts | 43° |
| 2026-05-05 21:20 | -26.63152 | -51.20685 | 9050 ft | 104 kts | 43° |
| 2026-05-05 21:20 | -26.62671 | -51.20079 | 9051 ft | 104 kts | 43° |
| 2026-05-05 21:21 | -26.62190 | -51.19472 | 9050 ft | 105 kts | 43° |
| 2026-05-05 21:21 | -26.61709 | -51.18866 | 9050 ft | 105 kts | 43° |
| 2026-05-05 21:21 | -26.61227 | -51.18258 | 9049 ft | 105 kts | 43° |
| 2026-05-05 21:21 | -26.60745 | -51.17652 | 9049 ft | 105 kts | 43° |
| 2026-05-05 21:22 | -26.60263 | -51.17044 | 9048 ft | 105 kts | 43° |
| 2026-05-05 21:22 | -26.59780 | -51.16436 | 9048 ft | 105 kts | 43° |
| 2026-05-05 21:22 | -26.59298 | -51.15830 | 9047 ft | 105 kts | 43° |
| 2026-05-05 21:22 | -26.58815 | -51.15222 | 9046 ft | 105 kts | 43° |
| 2026-05-05 21:23 | -26.58332 | -51.14613 | 9046 ft | 105 kts | 43° |
| 2026-05-05 21:23 | -26.57849 | -51.14007 | 9045 ft | 105 kts | 43° |
| 2026-05-05 21:23 | -26.57365 | -51.13398 | 9044 ft | 105 kts | 43° |
| 2026-05-05 21:23 | -26.56881 | -51.12789 | 9044 ft | 105 kts | 43° |
| 2026-05-05 21:24 | -26.56398 | -51.12181 | 9045 ft | 105 kts | 43° |
| 2026-05-05 21:24 | -26.55915 | -51.11574 | 9045 ft | 105 kts | 43° |
| 2026-05-05 21:24 | -26.55431 | -51.10966 | 9044 ft | 105 kts | 43° |
| 2026-05-05 21:24 | -26.54947 | -51.10357 | 9043 ft | 105 kts | 43° |
| 2026-05-05 21:25 | -26.54462 | -51.09748 | 9043 ft | 105 kts | 43° |
| 2026-05-05 21:25 | -26.53978 | -51.09140 | 9046 ft | 105 kts | 43° |
| 2026-05-05 21:25 | -26.53494 | -51.08536 | 9048 ft | 105 kts | 43° |
| 2026-05-05 21:25 | -26.53009 | -51.07930 | 9049 ft | 105 kts | 43° |
| 2026-05-05 21:26 | -26.52524 | -51.07327 | 9050 ft | 105 kts | 43° |
| 2026-05-05 21:26 | -26.52038 | -51.06721 | 9051 ft | 105 kts | 43° |
| 2026-05-05 21:26 | -26.51552 | -51.06116 | 9052 ft | 105 kts | 43° |
| 2026-05-05 21:26 | -26.51067 | -51.05513 | 9053 ft | 105 kts | 43° |
| 2026-05-05 21:27 | -26.50581 | -51.04908 | 9054 ft | 105 kts | 43° |
| 2026-05-05 21:27 | -26.50096 | -51.04303 | 9055 ft | 105 kts | 43° |
| 2026-05-05 21:27 | -26.49618 | -51.03691 | 9057 ft | 105 kts | 44° |
| 2026-05-05 21:27 | -26.49141 | -51.03080 | 9059 ft | 105 kts | 44° |
| 2026-05-05 21:28 | -26.48664 | -51.02467 | 9060 ft | 105 kts | 44° |
| 2026-05-05 21:28 | -26.48186 | -51.01855 | 9061 ft | 105 kts | 44° |
| 2026-05-05 21:28 | -26.47709 | -51.01243 | 9062 ft | 105 kts | 44° |
| 2026-05-05 21:28 | -26.47231 | -51.00632 | 9063 ft | 105 kts | 44° |
| 2026-05-05 21:29 | -26.46753 | -51.00020 | 9064 ft | 105 kts | 44° |
| 2026-05-05 21:29 | -26.46275 | -50.99409 | 9065 ft | 105 kts | 44° |
| 2026-05-05 21:29 | -26.45796 | -50.98797 | 9065 ft | 105 kts | 44° |
| 2026-05-05 21:29 | -26.45318 | -50.98186 | 9065 ft | 105 kts | 44° |
| 2026-05-05 21:30 | -26.44839 | -50.97575 | 9066 ft | 105 kts | 44° |
| 2026-05-05 21:30 | -26.44361 | -50.96965 | 9067 ft | 105 kts | 44° |
| 2026-05-05 21:30 | -26.43882 | -50.96354 | 9067 ft | 105 kts | 44° |
| 2026-05-05 21:30 | -26.43402 | -50.95743 | 9067 ft | 105 kts | 44° |
| 2026-05-05 21:31 | -26.42923 | -50.95132 | 9066 ft | 105 kts | 44° |
| 2026-05-05 21:31 | -26.42442 | -50.94520 | 9067 ft | 105 kts | 44° |
| 2026-05-05 21:31 | -26.41962 | -50.93910 | 9067 ft | 105 kts | 44° |
| 2026-05-05 21:31 | -26.41482 | -50.93299 | 9067 ft | 105 kts | 44° |
| 2026-05-05 21:32 | -26.41001 | -50.92688 | 9067 ft | 105 kts | 44° |
| 2026-05-05 21:32 | -26.40520 | -50.92078 | 9067 ft | 105 kts | 44° |
| 2026-05-05 21:32 | -26.40038 | -50.91468 | 9067 ft | 105 kts | 44° |
| 2026-05-05 21:32 | -26.39556 | -50.90857 | 9067 ft | 105 kts | 44° |
| 2026-05-05 21:33 | -26.39074 | -50.90246 | 9067 ft | 105 kts | 44° |
| 2026-05-05 21:33 | -26.38591 | -50.89636 | 9067 ft | 105 kts | 44° |
| 2026-05-05 21:33 | -26.38108 | -50.89026 | 9067 ft | 105 kts | 44° |
| 2026-05-05 21:33 | -26.37625 | -50.88417 | 9067 ft | 105 kts | 44° |
| 2026-05-05 21:34 | -26.37140 | -50.87805 | 9067 ft | 105 kts | 44° |
| 2026-05-05 21:34 | -26.36657 | -50.87197 | 9068 ft | 105 kts | 43° |
| 2026-05-05 21:34 | -26.36170 | -50.86593 | 9071 ft | 105 kts | 43° |
| 2026-05-05 21:34 | -26.35680 | -50.85993 | 9070 ft | 105 kts | 43° |
| 2026-05-05 21:35 | -26.35190 | -50.85388 | 9066 ft | 106 kts | 44° |
| 2026-05-05 21:35 | -26.34700 | -50.84781 | 9068 ft | 105 kts | 44° |
| 2026-05-05 21:35 | -26.34211 | -50.84176 | 9068 ft | 106 kts | 44° |
| 2026-05-05 21:35 | -26.33721 | -50.83569 | 9068 ft | 106 kts | 44° |
| 2026-05-05 21:36 | -26.33227 | -50.82960 | 9068 ft | 106 kts | 44° |
| 2026-05-05 21:36 | -26.32736 | -50.82353 | 9068 ft | 106 kts | 44° |
| 2026-05-05 21:36 | -26.32242 | -50.81745 | 9068 ft | 106 kts | 44° |
| 2026-05-05 21:36 | -26.31751 | -50.81139 | 9068 ft | 106 kts | 44° |
| 2026-05-05 21:37 | -26.31257 | -50.80531 | 9067 ft | 106 kts | 44° |
| 2026-05-05 21:37 | -26.30763 | -50.79923 | 9067 ft | 106 kts | 44° |
| 2026-05-05 21:37 | -26.30268 | -50.79316 | 9067 ft | 106 kts | 44° |
| 2026-05-05 21:37 | -26.29774 | -50.78710 | 9067 ft | 106 kts | 44° |
| 2026-05-05 21:38 | -26.29279 | -50.78103 | 9067 ft | 106 kts | 44° |
| 2026-05-05 21:38 | -26.28784 | -50.77497 | 9067 ft | 106 kts | 44° |
| 2026-05-05 21:38 | -26.28290 | -50.76891 | 9067 ft | 106 kts | 44° |
| 2026-05-05 21:38 | -26.27794 | -50.76285 | 9067 ft | 106 kts | 44° |
| 2026-05-05 21:39 | -26.27298 | -50.75678 | 9067 ft | 106 kts | 44° |
| 2026-05-05 21:39 | -26.26802 | -50.75072 | 9067 ft | 106 kts | 44° |
| 2026-05-05 21:39 | -26.26306 | -50.74464 | 9067 ft | 106 kts | 44° |
| 2026-05-05 21:39 | -26.25810 | -50.73858 | 9067 ft | 106 kts | 44° |
| 2026-05-05 21:40 | -26.25315 | -50.73254 | 9068 ft | 106 kts | 44° |
| 2026-05-05 21:40 | -26.24819 | -50.72647 | 9068 ft | 106 kts | 44° |
| 2026-05-05 21:40 | -26.24323 | -50.72041 | 9068 ft | 106 kts | 44° |
| 2026-05-05 21:40 | -26.23827 | -50.71435 | 9068 ft | 106 kts | 44° |
| 2026-05-05 21:41 | -26.23331 | -50.70828 | 9068 ft | 106 kts | 44° |
| 2026-05-05 21:41 | -26.22835 | -50.70223 | 9068 ft | 106 kts | 44° |
| 2026-05-05 21:41 | -26.22339 | -50.69617 | 9068 ft | 106 kts | 44° |
| 2026-05-05 21:41 | -26.21843 | -50.69011 | 9068 ft | 106 kts | 44° |
| 2026-05-05 21:42 | -26.21346 | -50.68404 | 9068 ft | 106 kts | 44° |
| 2026-05-05 21:42 | -26.20850 | -50.67798 | 9068 ft | 106 kts | 44° |
| 2026-05-05 21:42 | -26.20355 | -50.67193 | 9068 ft | 106 kts | 44° |
| 2026-05-05 21:42 | -26.19858 | -50.66586 | 9068 ft | 106 kts | 44° |
| 2026-05-05 21:43 | -26.19362 | -50.65980 | 9068 ft | 106 kts | 44° |
| 2026-05-05 21:43 | -26.18867 | -50.65375 | 9070 ft | 106 kts | 44° |
| 2026-05-05 21:43 | -26.18372 | -50.64769 | 9072 ft | 106 kts | 44° |
| 2026-05-05 21:43 | -26.17878 | -50.64164 | 9072 ft | 106 kts | 44° |
| 2026-05-05 21:44 | -26.17383 | -50.63559 | 9072 ft | 106 kts | 44° |
| 2026-05-05 21:44 | -26.16890 | -50.62954 | 9072 ft | 106 kts | 44° |
| 2026-05-05 21:44 | -26.16394 | -50.62348 | 9071 ft | 106 kts | 44° |
| 2026-05-05 21:44 | -26.15899 | -50.61743 | 9069 ft | 106 kts | 44° |
| 2026-05-05 21:45 | -26.15402 | -50.61137 | 9069 ft | 106 kts | 44° |
| 2026-05-05 21:45 | -26.14906 | -50.60531 | 9070 ft | 106 kts | 44° |
| 2026-05-05 21:45 | -26.14409 | -50.59925 | 9070 ft | 106 kts | 44° |
| 2026-05-05 21:45 | -26.13913 | -50.59320 | 9070 ft | 106 kts | 44° |
| 2026-05-05 21:46 | -26.13417 | -50.58715 | 9070 ft | 106 kts | 44° |
| 2026-05-05 21:46 | -26.12920 | -50.58109 | 9070 ft | 106 kts | 44° |
| 2026-05-05 21:46 | -26.12424 | -50.57503 | 9070 ft | 106 kts | 44° |
| 2026-05-05 21:46 | -26.11929 | -50.56899 | 9070 ft | 106 kts | 44° |
| 2026-05-05 21:47 | -26.11432 | -50.56293 | 9070 ft | 106 kts | 44° |
| 2026-05-05 21:47 | -26.10935 | -50.55687 | 9070 ft | 106 kts | 44° |
| 2026-05-05 21:47 | -26.10439 | -50.55083 | 9070 ft | 106 kts | 44° |
| 2026-05-05 21:47 | -26.09943 | -50.54478 | 9070 ft | 106 kts | 44° |
| 2026-05-05 21:48 | -26.09446 | -50.53872 | 9070 ft | 106 kts | 44° |
| 2026-05-05 21:48 | -26.08951 | -50.53267 | 9070 ft | 106 kts | 44° |
| 2026-05-05 21:48 | -26.08453 | -50.52661 | 9070 ft | 106 kts | 44° |
| 2026-05-05 21:48 | -26.07958 | -50.52057 | 9070 ft | 106 kts | 44° |
| 2026-05-05 21:49 | -26.07462 | -50.51452 | 9070 ft | 106 kts | 44° |
| 2026-05-05 21:49 | -26.06965 | -50.50846 | 9070 ft | 106 kts | 44° |
| 2026-05-05 21:49 | -26.06468 | -50.50241 | 9071 ft | 106 kts | 44° |
| 2026-05-05 21:49 | -26.05972 | -50.49636 | 9071 ft | 106 kts | 44° |
| 2026-05-05 21:50 | -26.05476 | -50.49032 | 9071 ft | 106 kts | 44° |
| 2026-05-05 21:50 | -26.04980 | -50.48428 | 9071 ft | 106 kts | 44° |
| 2026-05-05 21:50 | -26.04482 | -50.47821 | 9071 ft | 106 kts | 44° |
| 2026-05-05 21:50 | -26.03987 | -50.47218 | 9072 ft | 106 kts | 44° |
| 2026-05-05 21:51 | -26.03490 | -50.46612 | 9072 ft | 106 kts | 44° |
| 2026-05-05 21:51 | -26.02993 | -50.46007 | 9072 ft | 106 kts | 44° |
| 2026-05-05 21:51 | -26.02497 | -50.45403 | 9072 ft | 106 kts | 44° |
| 2026-05-05 21:51 | -26.02000 | -50.44798 | 9072 ft | 106 kts | 44° |
| 2026-05-05 21:52 | -26.01009 | -50.43591 | 9074 ft | 106 kts | 44° |
| 2026-05-05 21:52 | -26.00513 | -50.42987 | 9075 ft | 106 kts | 44° |
| 2026-05-05 21:52 | -26.00017 | -50.42384 | 9075 ft | 106 kts | 44° |
| 2026-05-05 21:53 | -25.99521 | -50.41780 | 9075 ft | 106 kts | 44° |
| 2026-05-05 21:53 | -25.99025 | -50.41176 | 9075 ft | 106 kts | 44° |
| 2026-05-05 21:53 | -25.98529 | -50.40573 | 9075 ft | 106 kts | 44° |
| 2026-05-05 21:53 | -25.98032 | -50.39969 | 9075 ft | 106 kts | 44° |
| 2026-05-05 21:54 | -25.97536 | -50.39362 | 9074 ft | 106 kts | 45° |
| 2026-05-05 21:54 | -25.97085 | -50.38711 | 9073 ft | 107 kts | 52° |
| 2026-05-05 21:54 | -25.96703 | -50.38001 | 9076 ft | 108 kts | 58° |
| 2026-05-05 21:54 | -25.96391 | -50.37243 | 9077 ft | 108 kts | 64° |
| 2026-05-05 21:55 | -25.96202 | -50.36436 | 9068 ft | 111 kts | 92° |
| 2026-05-05 21:55 | -25.96726 | -50.36180 | 8730 ft | 117 kts | 261° |
| 2026-05-05 21:55 | -25.96545 | -50.36231 | 5969 ft | 113 kts | 76° |
| 2026-05-05 21:55 | -25.96260 | -50.36035 | 2734 ft | 201 kts | 46° |
| 2026-05-05 21:56 | -25.95988 | -50.34976 | 3229 ft | 136 kts | 134° |
| 2026-05-05 21:56 | -25.96527 | -50.35510 | 2957 ft | 117 kts | 269° |
| 2026-05-05 21:56 | -25.95938 | -50.35758 | 2644 ft | 124 kts | 32° |
| 2026-05-05 21:56 | -25.95742 | -50.35010 | 2647 ft | 123 kts | 141° |
| 2026-05-05 21:57 | -25.96489 | -50.35119 | 2682 ft | 106 kts | 227° |
| 2026-05-05 21:57 | -25.96208 | -50.35695 | 2617 ft | 105 kts | 339° |
| 2026-05-05 21:57 | -25.95730 | -50.35324 | 2525 ft | 115 kts | 116° |
| 2026-05-05 21:57 | -25.96236 | -50.34781 | 2633 ft | 106 kts | 186° |
| 2026-05-05 21:58 | -25.96439 | -50.34971 | 2537 ft | 108 kts | 265° |